Time;durP1;ratioP1;P1;durP2;ratioP2;P2;SDS_P1;SDS_P2;PMS_P1;PMS_P2;Temp;Humidity;BMP_temperature;BMP_pressure;BME280_temperature;BME280_humidity;BME280_pressure;Samples;Min_cycle;Max_cycle;Signal;HPM_P1;HPM_P2
2023/10/09 00:06:24;;;;;;;4.8;2.6;;;;;;;3.43;81.05;;;;;
2023/10/09 00:16:32;;;;;;;4.8;2.6;;;;;;;3.25;81.18;;;;;
2023/10/09 00:27:19;;;;;;;4.8;2.6;;;;;;;3.01;82.08;;;;;
2023/10/09 00:38:23;;;;;;;3.8;2.1;;;;;;;2.88;83.13;;;;;
2023/10/09 00:49:21;;;;;;;3.8;2.1;;;;;;;2.76;85.81;;;;;
2023/10/09 00:59:20;;;;;;;3.8;2.1;;;;;;;2.71;84.42;;;;;
2023/10/09 01:09:21;;;;;;;5.7;1.8;;;;;;;2.6;84.71;;;;;
2023/10/09 01:20:27;;;;;;;5.7;1.8;;;;;;;2.5;86.66;;;;;
2023/10/09 01:30:20;;;;;;;5.7;1.8;;;;;;;2.46;85.9;;;;;
2023/10/09 01:41:19;;;;;;;4.7;2.1;;;;;;;2.38;86.57;;;;;
2023/10/09 01:51:20;;;;;;;4.7;2.1;;;;;;;2.37;86.24;;;;;
2023/10/09 02:01:21;;;;;;;4.7;2.1;;;;;;;2.42;86;;;;;
2023/10/09 02:11:24;;;;;;;7.1;1.6;;;;;;;2.55;86.26;;;;;
2023/10/09 02:22:19;;;;;;;7.1;1.6;;;;;;;2.8;86.82;;;;;
2023/10/09 02:33:27;;;;;;;4.1;1.9;;;;;;;3.01;87.24;;;;;
2023/10/09 02:43:19;;;;;;;4.1;1.9;;;;;;;3.1;87.72;;;;;
2023/10/09 02:53:29;;;;;;;4.1;1.9;;;;;;;3.33;87.12;;;;;
2023/10/09 03:04:19;;;;;;;6.4;2.8;;;;;;;3.48;86.55;;;;;
2023/10/09 03:14:20;;;;;;;6.4;2.8;;;;;;;3.59;86.33;;;;;
2023/10/09 03:25:19;;;;;;;6.4;2.8;;;;;;;3.55;87.43;;;;;
2023/10/09 03:36:19;;;;;;;4.7;2;;;;;;;3.69;86.83;;;;;
2023/10/09 03:46:21;;;;;;;4.7;2;;;;;;;3.93;86.73;;;;;
2023/10/09 03:57:19;;;;;;;4.7;2;;;;;;;4.35;85.69;;;;;
2023/10/09 04:08:19;;;;;;;4.2;1.8;;;;;;;4.4;85.29;;;;;
2023/10/09 04:18:19;;;;;;;4.2;1.8;;;;;;;4.86;81.77;;;;;
2023/10/09 04:29:26;;;;;;;4.2;1.8;;;;;;;5.15;80.61;;;;;
2023/10/09 04:39:36;;;;;;;2.8;1.4;;;;;;;5.27;81.52;;;;;
2023/10/09 04:51:20;;;;;;;2.8;1.4;;;;;;;5.35;79.42;;;;;
2023/10/09 05:01:35;;;;;;;2.8;1.4;;;;;;;5.57;79.05;;;;;
2023/10/09 05:12:19;;;;;;;3.7;2;;;;;;;5.73;78.99;;;;;
2023/10/09 05:22:29;;;;;;;3.7;2;;;;;;;5.8;80.14;;;;;
2023/10/09 05:33:36;;;;;;;7.5;2.9;;;;;;;5.78;81.41;;;;;
2023/10/09 05:54:11;;;;;;;7.5;2.9;;;;;;;5.66;83.05;;;;;
2023/10/09 06:04:49;;;;;;;6.4;2.9;;;;;;;5.97;82.39;;;;;
2023/10/09 06:14:49;;;;;;;6.4;2.9;;;;;;;6.28;81.5;;;;;
2023/10/09 06:25:32;;;;;;;6.4;2.9;;;;;;;6.64;77.69;;;;;
2023/10/09 06:36:32;;;;;;;3.4;1.7;;;;;;;6.78;75.61;;;;;
2023/10/09 06:46:52;;;;;;;3.4;1.7;;;;;;;6.96;75.51;;;;;
2023/10/09 06:57:49;;;;;;;3.4;1.7;;;;;;;6.99;76.77;;;;;
2023/10/09 07:08:36;;;;;;;5.4;2.1;;;;;;;6.97;78.96;;;;;
2023/10/09 07:19:57;;;;;;;5.4;2.1;;;;;;;6.91;80.18;;;;;
2023/10/09 07:29:47;;;;;;;5.4;2.1;;;;;;;6.77;80.86;;;;;
2023/10/09 07:40:51;;;;;;;5;2.1;;;;;;;6.92;80.98;;;;;
2023/10/09 07:50:38;;;;;;;5;2.1;;;;;;;6.85;81.96;;;;;
2023/10/09 08:01:35;;;;;;;5;2.1;;;;;;;6.91;83.89;;;;;
2023/10/09 08:12:57;;;;;;;3.2;1.4;;;;;;;7.03;83.88;;;;;
2023/10/09 08:22:52;;;;;;;3.2;1.4;;;;;;;7.22;83.21;;;;;
2023/10/09 08:32:38;;;;;;;2.5;1;;;;;;;7.2;83.81;;;;;
2023/10/09 08:43:32;;;;;;;2.5;1;;;;;;;7.55;82.81;;;;;
2023/10/09 08:54:33;;;;;;;2.5;1;;;;;;;7.82;81.48;;;;;
2023/10/09 09:05:35;;;;;;;2.1;1;;;;;;;9.06;80.21;;;;;
2023/10/09 09:16:34;;;;;;;2.1;1;;;;;;;9.3;77.39;;;;;
2023/10/09 09:26:37;;;;;;;2.1;1;;;;;;;9.06;77.24;;;;;
2023/10/09 09:37:33;;;;;;;5.5;3;;;;;;;9.1;77.96;;;;;
2023/10/09 09:48:32;;;;;;;5.5;3;;;;;;;9.2;77.22;;;;;
2023/10/09 09:58:42;;;;;;;5.5;3;;;;;;;9.19;77.58;;;;;
2023/10/09 10:08:33;;;;;;;3.2;1.6;;;;;;;8.4;79.93;;;;;
2023/10/09 10:19:36;;;;;;;3.2;1.6;;;;;;;8.57;80.64;;;;;
2023/10/09 10:30:34;;;;;;;3.2;1.6;;;;;;;8.15;82.27;;;;;
2023/10/09 10:41:36;;;;;;;7.6;3.9;;;;;;;7.81;83.46;;;;;
2023/10/09 10:51:37;;;;;;;7.6;3.9;;;;;;;8.15;83.61;;;;;
2023/10/09 11:01:50;;;;;;;7.6;3.9;;;;;;;8.21;83.56;;;;;
2023/10/09 11:12:38;;;;;;;4.6;2;;;;;;;8.1;83.57;;;;;
2023/10/09 11:22:39;;;;;;;4.6;2;;;;;;;8.6;82.96;;;;;
2023/10/09 11:33:32;;;;;;;5.4;2.3;;;;;;;8.64;81.34;;;;;
2023/10/09 11:43:51;;;;;;;5.4;2.3;;;;;;;8.54;82.58;;;;;
2023/10/09 11:54:33;;;;;;;5.4;2.3;;;;;;;8.79;81.9;;;;;
2023/10/09 12:04:33;;;;;;;6;2.7;;;;;;;8.6;81.89;;;;;
2023/10/09 12:14:33;;;;;;;6;2.7;;;;;;;8.44;82.37;;;;;
2023/10/09 12:25:33;;;;;;;6;2.7;;;;;;;8.23;83.27;;;;;
2023/10/09 12:36:37;;;;;;;3.9;2.1;;;;;;;8.03;83.81;;;;;
2023/10/09 12:47:33;;;;;;;3.9;2.1;;;;;;;8.16;83.04;;;;;
2023/10/09 12:58:37;;;;;;;3.9;2.1;;;;;;;8.27;83.39;;;;;
2023/10/09 13:09:35;;;;;;;4.9;2.2;;;;;;;8.08;83.15;;;;;
2023/10/09 13:19:33;;;;;;;4.9;2.2;;;;;;;8.16;83.71;;;;;
2023/10/09 13:30:39;;;;;;;4.9;2.2;;;;;;;8.15;83.92;;;;;
2023/10/09 13:40:35;;;;;;;3.5;2.1;;;;;;;8.28;83.19;;;;;
2023/10/09 13:50:33;;;;;;;3.5;2.1;;;;;;;8.15;84.32;;;;;
2023/10/09 14:00:34;;;;;;;3.5;2.1;;;;;;;8.33;84.11;;;;;
2023/10/09 14:10:38;;;;;;;47.2;24.3;;;;;;;8.05;85.05;;;;;
2023/10/09 14:20:32;;;;;;;47.2;24.3;;;;;;;7.82;86.82;;;;;
2023/10/09 14:30:41;;;;;;;47.2;24.3;;;;;;;8.11;86.16;;;;;
2023/10/09 14:41:33;;;;;;;6;2.4;;;;;;;8.24;85.66;;;;;
2023/10/09 14:52:32;;;;;;;6;2.4;;;;;;;8.18;85.62;;;;;
2023/10/09 15:02:33;;;;;;;6.7;3.8;;;;;;;8.19;85.37;;;;;
2023/10/09 15:13:33;;;;;;;6.7;3.8;;;;;;;8.11;85.15;;;;;
2023/10/09 15:23:33;;;;;;;6.7;3.8;;;;;;;7.73;87.17;;;;;
2023/10/09 15:33:34;;;;;;;10.7;5;;;;;;;7.58;88.32;;;;;
2023/10/09 15:44:34;;;;;;;10.7;5;;;;;;;7.57;88.13;;;;;
2023/10/09 15:55:33;;;;;;;10.7;5;;;;;;;7.6;87.95;;;;;
2023/10/09 16:05:35;;;;;;;5.8;3;;;;;;;7.54;87.62;;;;;
2023/10/09 16:15:33;;;;;;;5.8;3;;;;;;;7.66;87.48;;;;;
2023/10/09 16:26:39;;;;;;;5.8;3;;;;;;;7.59;88.58;;;;;
2023/10/09 16:37:34;;;;;;;7.3;3.6;;;;;;;7.51;88.99;;;;;
2023/10/09 16:48:33;;;;;;;7.3;3.6;;;;;;;7.82;88.5;;;;;
2023/10/09 16:58:33;;;;;;;7.3;3.6;;;;;;;7.92;87.61;;;;;
2023/10/09 17:08:34;;;;;;;7.4;3.7;;;;;;;7.7;88.26;;;;;
2023/10/09 17:19:33;;;;;;;7.4;3.7;;;;;;;7.79;88.26;;;;;
2023/10/09 17:29:36;;;;;;;7.4;3.7;;;;;;;7.86;88.05;;;;;
2023/10/09 17:40:33;;;;;;;15;10.1;;;;;;;7.97;87.91;;;;;
2023/10/09 17:51:33;;;;;;;15;10.1;;;;;;;8.09;87.22;;;;;
2023/10/09 18:02:35;;;;;;;6.4;4;;;;;;;8;87.34;;;;;
2023/10/09 18:13:35;;;;;;;6.4;4;;;;;;;8.06;87.32;;;;;
2023/10/09 18:24:39;;;;;;;6.4;4;;;;;;;8.2;87.16;;;;;
2023/10/09 18:34:33;;;;;;;9.3;5.4;;;;;;;8.01;87.72;;;;;
2023/10/09 18:44:33;;;;;;;9.3;5.4;;;;;;;8.13;87.34;;;;;
2023/10/09 18:55:35;;;;;;;9.3;5.4;;;;;;;7.93;88.09;;;;;
2023/10/09 19:06:33;;;;;;;12.1;6.8;;;;;;;8.21;87.75;;;;;
2023/10/09 19:17:34;;;;;;;12.1;6.8;;;;;;;8.09;87.99;;;;;
2023/10/09 19:27:33;;;;;;;12.1;6.8;;;;;;;8.11;87.81;;;;;
2023/10/09 19:38:33;;;;;;;10.8;6.7;;;;;;;8.24;87.34;;;;;
2023/10/09 19:48:33;;;;;;;10.8;6.7;;;;;;;8.17;87.13;;;;;
2023/10/09 19:59:33;;;;;;;10.8;6.7;;;;;;;8.14;87.75;;;;;
2023/10/09 20:09:33;;;;;;;12.3;6.4;;;;;;;8.21;87.5;;;;;
2023/10/09 20:19:33;;;;;;;12.3;6.4;;;;;;;8.21;87.68;;;;;
2023/10/09 20:30:33;;;;;;;12.3;6.4;;;;;;;8.12;88.26;;;;;
2023/10/09 20:40:33;;;;;;;15.6;8;;;;;;;7.92;88.65;;;;;
2023/10/09 20:51:33;;;;;;;15.6;8;;;;;;;8.08;87.86;;;;;
2023/10/09 21:02:34;;;;;;;9.4;5.4;;;;;;;8.13;87.99;;;;;
2023/10/09 21:13:33;;;;;;;9.4;5.4;;;;;;;8.21;87.64;;;;;
2023/10/09 21:23:33;;;;;;;9.4;5.4;;;;;;;8.14;87.6;;;;;
2023/10/09 21:33:33;;;;;;;12.4;6.3;;;;;;;8.25;87.93;;;;;
2023/10/09 21:43:33;;;;;;;12.4;6.3;;;;;;;8.2;87.75;;;;;
2023/10/09 21:54:33;;;;;;;12.4;6.3;;;;;;;8.16;87.62;;;;;
2023/10/09 22:05:33;;;;;;;14;6.9;;;;;;;7.99;88.22;;;;;
2023/10/09 22:16:33;;;;;;;14;6.9;;;;;;;8.19;88.46;;;;;
2023/10/09 22:27:35;;;;;;;14;6.9;;;;;;;7.96;88.73;;;;;
2023/10/09 22:38:33;;;;;;;14.6;7.5;;;;;;;8.1;88.26;;;;;
2023/10/09 22:49:34;;;;;;;14.6;7.5;;;;;;;8.11;88.06;;;;;
2023/10/09 22:59:43;;;;;;;14.6;7.5;;;;;;;7.86;88.46;;;;;
2023/10/09 23:09:33;;;;;;;13.6;7.6;;;;;;;7.76;89.17;;;;;
2023/10/09 23:19:43;;;;;;;13.6;7.6;;;;;;;7.66;88.56;;;;;
2023/10/09 23:30:36;;;;;;;13.6;7.6;;;;;;;7.71;88.6;;;;;
2023/10/09 23:41:33;;;;;;;11.5;4.8;;;;;;;7.77;88.71;;;;;
2023/10/09 23:51:34;;;;;;;11.5;4.8;;;;;;;7.92;88.1;;;;;
